createdAt,value
2022-11-29T00:01:46.286Z,76.80
2022-11-29T00:04:13.969Z,76.94
2022-11-29T00:06:41.478Z,77.12
2022-11-29T00:09:12.216Z,76.91
2022-11-29T00:12:00.406Z,76.93
2022-11-29T00:14:29.173Z,76.82
2022-11-29T00:17:01.881Z,76.79
2022-11-29T00:19:29.904Z,76.80
2022-11-29T00:21:57.393Z,76.70
2022-11-29T00:24:24.953Z,76.92
2022-11-29T00:26:53.696Z,77.04
2022-11-29T00:29:21.335Z,76.92
2022-11-29T00:31:48.814Z,77.02
2022-11-29T00:34:16.296Z,76.84
2022-11-29T00:36:43.741Z,77.20
2022-11-29T00:39:12.546Z,76.90
2022-11-29T00:41:40.312Z,76.93
2022-11-29T00:44:10.544Z,76.74
2022-11-29T00:46:40.438Z,76.72
2022-11-29T00:49:07.884Z,77.04
2022-11-29T00:51:35.334Z,77.25
2022-11-29T00:54:02.843Z,77.07
2022-11-29T00:56:30.618Z,76.90
2022-11-29T00:58:58.096Z,77.06
2022-11-29T01:01:26.930Z,77.01
2022-11-29T01:03:54.493Z,77.11
2022-11-29T01:06:21.981Z,77.12
2022-11-29T01:08:50.628Z,77.04
2022-11-29T01:11:20.429Z,77.26
2022-11-29T01:13:48.395Z,77.06
2022-11-29T01:16:16.722Z,76.93
2022-11-29T01:18:45.633Z,77.28
2022-11-29T01:21:15.837Z,76.96
2022-11-29T01:23:45.116Z,77.06
2022-11-29T01:26:15.114Z,77.03
2022-11-29T01:28:43.500Z,77.30
2022-11-29T01:31:12.739Z,76.99
2022-11-29T01:33:40.792Z,77.15
2022-11-29T01:36:11.019Z,77.07
2022-11-29T01:38:38.688Z,77.33
2022-11-29T01:41:08.446Z,77.03
2022-11-29T01:43:55.842Z,77.40
2022-11-29T01:46:23.548Z,77.15
2022-11-29T01:48:53.206Z,77.19
2022-11-29T01:51:22.672Z,76.92
2022-11-29T01:53:50.138Z,77.18
2022-11-29T01:56:17.743Z,77.40
2022-11-29T01:58:46.256Z,77.02
2022-11-29T02:01:17.759Z,77.26
2022-11-29T02:03:45.423Z,77.48
2022-11-29T02:06:13.810Z,77.20
2022-11-29T02:08:43.826Z,77.36
2022-11-29T02:11:40.270Z,77.13
2022-11-29T02:14:23.014Z,77.44
2022-11-29T02:16:58.807Z,77.33
2022-11-29T02:19:46.761Z,77.31
2022-11-29T02:22:20.583Z,77.18
2022-11-29T02:25:05.152Z,77.27
2022-11-29T02:28:10.135Z,77.29
2022-11-29T02:31:05.762Z,77.31
2022-11-29T02:33:58.911Z,77.10
2022-11-29T02:36:43.547Z,77.18
2022-11-29T02:39:49.909Z,77.26
2022-11-29T02:42:56.472Z,77.24
2022-11-29T02:46:04.779Z,77.09
2022-11-29T02:48:54.236Z,77.16
2022-11-29T02:51:28.551Z,77.27
2022-11-29T02:54:05.227Z,77.35
2022-11-29T02:56:38.879Z,77.25
2022-11-29T02:59:14.972Z,77.26
2022-11-29T03:01:53.016Z,77.08
2022-11-29T03:04:32.276Z,77.39
2022-11-29T03:07:05.876Z,77.35
2022-11-29T03:09:40.986Z,77.15
2022-11-29T03:12:17.338Z,77.18
2022-11-29T03:14:55.294Z,77.37
2022-11-29T03:17:32.042Z,77.34
2022-11-29T03:20:22.965Z,77.16
2022-11-29T03:23:09.300Z,77.47
2022-11-29T03:25:40.869Z,77.24
2022-11-29T03:28:15.285Z,77.30
2022-11-29T03:30:49.958Z,77.40
2022-11-29T03:33:25.310Z,77.61
2022-11-29T03:36:01.112Z,77.24
2022-11-29T03:38:33.776Z,77.42
2022-11-29T03:41:06.671Z,77.06
2022-11-29T03:43:43.805Z,77.28
2022-11-29T03:46:16.809Z,77.37
2022-11-29T03:48:49.100Z,77.33
2022-11-29T03:51:22.868Z,77.26
2022-11-29T03:53:55.010Z,77.50
2022-11-29T03:56:27.762Z,77.52
2022-11-29T03:59:04.198Z,77.66
2022-11-29T04:01:56.783Z,77.51
2022-11-29T04:04:50.116Z,77.48
2022-11-29T04:07:34.750Z,77.68
2022-11-29T04:10:17.099Z,77.61
2022-11-29T04:13:03.303Z,77.43
2022-11-29T04:15:54.968Z,77.38
2022-11-29T04:19:01.530Z,77.48
2022-11-29T04:21:38.655Z,77.38
2022-11-29T04:24:28.178Z,77.64
2022-11-29T04:27:19.701Z,77.47
2022-11-29T04:30:04.662Z,77.41
2022-11-29T04:33:13.705Z,77.55
2022-11-29T04:36:02.155Z,77.58
2022-11-29T04:38:44.472Z,77.49
2022-11-29T04:41:29.259Z,77.63
2022-11-29T04:44:12.227Z,77.49
2022-11-29T04:47:04.426Z,77.64
2022-11-29T04:49:47.062Z,77.28
2022-11-29T04:52:42.418Z,77.61
2022-11-29T04:55:27.649Z,77.84
2022-11-29T04:58:05.127Z,77.46
2022-11-29T05:00:40.399Z,77.56
2022-11-29T05:03:15.276Z,77.49
2022-11-29T05:05:52.238Z,77.66
2022-11-29T05:08:30.215Z,77.65
2022-11-29T05:11:06.730Z,77.66
2022-11-29T05:13:44.740Z,77.59
2022-11-29T05:16:33.386Z,77.73
2022-11-29T05:19:21.252Z,77.50
2022-11-29T05:21:56.386Z,77.54
2022-11-29T05:24:39.543Z,77.64
2022-11-29T05:27:16.232Z,77.61
2022-11-29T05:29:55.156Z,77.67
2022-11-29T05:32:28.589Z,77.64
2022-11-29T05:35:17.644Z,77.41
2022-11-29T05:37:49.933Z,77.64
2022-11-29T05:40:40.566Z,77.59
2022-11-29T05:43:22.546Z,77.58
2022-11-29T05:45:58.571Z,77.77
2022-11-29T05:48:33.864Z,77.67
2022-11-29T05:51:14.140Z,77.52
2022-11-29T05:53:49.182Z,77.71
2022-11-29T05:56:24.817Z,77.61
2022-11-29T05:58:59.502Z,77.73
2022-11-29T06:01:31.670Z,77.72
2022-11-29T06:04:07.965Z,77.57
2022-11-29T06:06:45.601Z,77.47
2022-11-29T06:09:19.500Z,77.54
2022-11-29T06:11:51.086Z,77.67
2022-11-29T06:14:36.015Z,77.69
2022-11-29T06:17:37.245Z,77.75
2022-11-29T06:20:25.573Z,77.60
2022-11-29T06:23:08.744Z,77.74
2022-11-29T06:25:51.480Z,77.42
2022-11-29T06:28:33.339Z,77.54
2022-11-29T06:31:06.253Z,77.37
2022-11-29T06:33:43.022Z,77.45
2022-11-29T06:36:19.702Z,77.78
2022-11-29T06:38:47.688Z,77.58
2022-11-29T06:41:19.608Z,77.56
2022-11-29T06:43:47.658Z,77.37
2022-11-29T06:46:25.105Z,77.57
2022-11-29T06:49:03.666Z,77.75
2022-11-29T06:51:40.103Z,77.64
2022-11-29T06:54:20.378Z,77.57
2022-11-29T06:56:56.053Z,77.64
2022-11-29T06:59:38.273Z,77.42
2022-11-29T07:02:21.375Z,77.72
2022-11-29T07:05:11.462Z,77.60
2022-11-29T07:07:40.664Z,77.69
2022-11-29T07:10:15.447Z,77.54
2022-11-29T07:12:44.239Z,77.60
2022-11-29T07:15:16.900Z,77.72
2022-11-29T07:20:58.980Z,77.61
2022-11-29T07:23:35.400Z,77.81
2022-11-29T07:26:18.492Z,77.43
2022-11-29T07:29:02.232Z,77.65
2022-11-29T07:31:39.599Z,77.61
2022-11-29T07:34:17.937Z,77.73
2022-11-29T07:36:56.317Z,77.66
2022-11-29T07:39:37.019Z,77.54
2022-11-29T07:42:13.640Z,77.58
2022-11-29T07:44:54.004Z,77.61
2022-11-29T07:47:21.594Z,77.50
2022-11-29T07:49:49.744Z,77.67
2022-11-29T07:52:18.634Z,77.75
2022-11-29T07:54:46.689Z,77.81
2022-11-29T07:57:14.457Z,77.74
2022-11-29T07:59:42.161Z,77.61
2022-11-29T08:02:12.059Z,77.53
2022-11-29T08:04:45.423Z,77.64
2022-11-29T08:07:13.687Z,77.73
2022-11-29T08:09:43.162Z,77.64
2022-11-29T08:12:15.219Z,77.73
2022-11-29T08:14:43.705Z,77.66
2022-11-29T08:17:11.920Z,77.71
2022-11-29T08:19:39.516Z,77.67
2022-11-29T08:22:08.070Z,77.46
2022-11-29T08:24:35.860Z,77.62
2022-11-29T08:27:06.088Z,77.40
2022-11-29T08:29:34.021Z,77.40
2022-11-29T08:32:01.971Z,77.71
2022-11-29T08:34:30.927Z,77.57
2022-11-29T08:36:59.496Z,77.73
2022-11-29T08:39:28.186Z,77.74
2022-11-29T08:41:56.184Z,77.48
2022-11-29T08:44:25.432Z,77.66
2022-11-29T08:47:10.642Z,77.49
2022-11-29T08:49:59.449Z,77.47
2022-11-29T08:58:32.524Z,77.34
2022-11-29T09:01:34.329Z,77.55
2022-11-29T09:06:50.801Z,77.34
2022-11-29T09:09:20.176Z,77.25
2022-11-29T09:11:57.854Z,77.28
2022-11-29T09:14:29.048Z,77.00
2022-11-29T09:16:59.441Z,77.41
2022-11-29T09:22:15.129Z,76.90
2022-11-29T09:24:43.548Z,77.04
2022-11-29T09:27:13.708Z,77.07
2022-11-29T09:29:41.927Z,77.29
2022-11-29T09:32:09.807Z,76.79
2022-11-29T09:34:39.265Z,76.91
2022-11-29T09:37:06.736Z,76.66
2022-11-29T09:39:34.380Z,76.71
2022-11-29T09:42:24.753Z,76.89
2022-11-29T09:45:01.689Z,76.51
2022-11-29T09:47:44.150Z,76.88
2022-11-29T09:50:26.377Z,76.65
2022-11-29T09:53:07.882Z,76.89
2022-11-29T09:55:47.067Z,76.62
2022-11-29T09:58:20.746Z,76.42
2022-11-29T10:00:51.638Z,76.64
2022-11-29T10:03:25.583Z,76.61
2022-11-29T10:06:00.797Z,76.37
2022-11-29T10:08:41.523Z,76.48
2022-11-29T10:11:22.254Z,76.66
2022-11-29T10:13:54.311Z,76.24
2022-11-29T10:16:30.809Z,76.25
2022-11-29T10:19:15.703Z,75.82
2022-11-29T10:21:57.500Z,76.63
2022-11-29T10:24:28.159Z,76.35
2022-11-29T10:26:56.136Z,76.51
2022-11-29T10:29:24.603Z,76.16
2022-11-29T10:31:56.607Z,76.17
2022-11-29T10:34:27.138Z,76.20
2022-11-29T10:36:59.690Z,76.16
2022-11-29T10:39:35.647Z,76.27
2022-11-29T10:42:04.947Z,75.90
2022-11-29T10:44:34.160Z,76.25
2022-11-29T10:47:10.491Z,76.21
2022-11-29T10:49:40.216Z,75.91
2022-11-29T10:52:19.080Z,76.29
2022-11-29T10:54:48.452Z,75.92
2022-11-29T10:57:18.827Z,76.03
2022-11-29T11:00:01.190Z,76.12
2022-11-29T11:02:29.656Z,75.67
2022-11-29T11:04:57.813Z,76.27
2022-11-29T11:07:31.995Z,75.67
2022-11-29T11:10:01.716Z,75.87
2022-11-29T11:12:40.828Z,76.27
2022-11-29T11:15:28.621Z,76.14
2022-11-29T11:17:58.235Z,75.84
2022-11-29T11:20:29.194Z,75.68
2022-11-29T11:23:01.573Z,75.95
2022-11-29T11:25:31.601Z,76.08
2022-11-29T11:28:13.648Z,76.05
2022-11-29T11:30:41.665Z,75.64
2022-11-29T11:33:19.257Z,76.07
2022-11-29T11:36:02.652Z,76.02
2022-11-29T11:38:33.475Z,75.80
2022-11-29T11:41:09.579Z,76.07
2022-11-29T11:43:37.333Z,75.60
2022-11-29T11:46:07.986Z,75.67
2022-11-29T11:48:36.299Z,75.64
2022-11-29T11:51:04.046Z,75.88
2022-11-29T11:53:36.800Z,75.44
2022-11-29T11:56:08.073Z,75.82
2022-11-29T11:58:40.302Z,75.42
2022-11-29T12:01:16.818Z,75.30
2022-11-29T12:03:55.670Z,75.81
2022-11-29T12:06:42.941Z,75.44
2022-11-29T12:09:20.593Z,75.94
2022-11-29T12:11:55.271Z,75.68
2022-11-29T12:14:30.240Z,75.39
2022-11-29T12:17:06.452Z,75.66
2022-11-29T12:19:41.994Z,75.35
2022-11-29T12:22:17.227Z,75.58
2022-11-29T12:24:55.362Z,75.92
2022-11-29T12:27:23.238Z,75.23
2022-11-29T12:29:50.847Z,75.30
2022-11-29T12:32:44.515Z,75.31
2022-11-29T12:35:40.702Z,75.60
2022-11-29T12:38:21.344Z,75.30
2022-11-29T12:41:02.926Z,75.55
2022-11-29T12:43:41.750Z,75.30
2022-11-29T12:46:15.266Z,75.32
2022-11-29T12:48:54.099Z,74.94
2022-11-29T12:51:31.990Z,75.58
2022-11-29T12:54:24.955Z,75.00
2022-11-29T12:57:04.182Z,75.16
2022-11-29T12:59:59.547Z,75.12
2022-11-29T13:02:59.173Z,74.98
2022-11-29T13:05:41.071Z,74.96
2022-11-29T13:08:24.518Z,74.96
2022-11-29T13:11:06.073Z,75.13
2022-11-29T13:13:40.886Z,75.32
2022-11-29T13:16:32.593Z,75.25
2022-11-29T13:19:06.783Z,75.09
2022-11-29T13:21:41.579Z,75.45
2022-11-29T13:24:13.570Z,74.98
2022-11-29T13:26:45.611Z,75.03
2022-11-29T13:29:17.399Z,75.12
2022-11-29T13:31:46.860Z,74.99
2022-11-29T13:34:19.228Z,75.21
2022-11-29T13:37:01.118Z,75.43
2022-11-29T13:39:39.533Z,75.67
2022-11-29T13:42:13.783Z,75.03
2022-11-29T13:44:49.451Z,75.04
2022-11-29T13:47:19.275Z,75.50
2022-11-29T13:49:56.143Z,75.36
2022-11-29T13:52:37.938Z,74.96
2022-11-29T13:55:23.712Z,75.31
2022-11-29T14:00:52.291Z,75.05
2022-11-29T14:03:28.507Z,74.96
2022-11-29T14:06:10.532Z,75.06
2022-11-29T14:09:16.727Z,74.85
2022-11-29T14:11:34.129Z,74.90
2022-11-29T14:14:06.801Z,75.25
2022-11-29T14:16:40.436Z,75.19
2022-11-29T14:19:24.334Z,74.93
2022-11-29T14:22:31.951Z,75.07
2022-11-29T14:25:49.722Z,75.37
2022-11-29T14:28:33.660Z,75.43
2022-11-29T14:31:04.175Z,75.57
2022-11-29T14:33:52.290Z,75.43
2022-11-29T14:36:27.241Z,75.38
2022-11-29T14:39:27.954Z,75.66
2022-11-29T14:42:05.978Z,74.90
2022-11-29T14:44:35.628Z,75.50
2022-11-29T14:47:08.423Z,75.37
2022-11-29T14:49:47.080Z,75.45
2022-11-29T14:52:24.655Z,75.66
2022-11-29T14:54:56.619Z,75.37
2022-11-29T14:57:53.898Z,75.28
2022-11-29T15:00:23.119Z,75.81
2022-11-29T15:02:54.228Z,75.50
2022-11-29T15:05:30.305Z,75.35
2022-11-29T15:08:08.511Z,75.68
2022-11-29T15:10:40.374Z,75.77
2022-11-29T15:13:13.840Z,75.45
2022-11-29T15:16:15.372Z,75.81
2022-11-29T15:19:21.847Z,75.52
2022-11-29T15:21:59.380Z,75.65
2022-11-29T15:24:28.926Z,75.77
2022-11-29T15:26:57.468Z,75.52
2022-11-29T15:29:25.930Z,75.74
2022-11-29T15:31:57.437Z,75.39
2022-11-29T15:34:32.588Z,75.40
2022-11-29T15:37:02.025Z,76.01
2022-11-29T15:39:31.955Z,75.94
2022-11-29T15:42:04.633Z,75.66
2022-11-29T15:44:33.661Z,75.44
2022-11-29T15:47:26.491Z,75.60
2022-11-29T15:49:55.177Z,76.07
2022-11-29T15:52:30.605Z,75.92
2022-11-29T15:55:01.582Z,76.33
2022-11-29T15:57:34.568Z,75.69
2022-11-29T16:00:04.400Z,76.02
2022-11-29T16:02:35.608Z,75.66
2022-11-29T16:05:11.753Z,76.13
2022-11-29T16:07:41.825Z,75.96
2022-11-29T16:10:14.157Z,75.89
2022-11-29T16:12:55.678Z,75.77
2022-11-29T16:15:31.061Z,75.97
2022-11-29T16:18:04.481Z,75.91
2022-11-29T16:20:32.259Z,76.28
2022-11-29T16:23:14.750Z,76.23
2022-11-29T16:26:01.181Z,75.95
2022-11-29T16:28:33.798Z,76.32
2022-11-29T16:31:01.831Z,76.21
2022-11-29T16:33:29.403Z,76.17
2022-11-29T16:36:08.158Z,76.49
2022-11-29T16:38:37.146Z,76.25
2022-11-29T16:41:06.991Z,76.42
2022-11-29T16:43:53.888Z,76.61
2022-11-29T16:46:42.389Z,76.54
2022-11-29T16:49:33.669Z,76.30
2022-11-29T16:52:01.478Z,76.55
2022-11-29T16:54:33.945Z,76.61
2022-11-29T16:57:05.179Z,76.61
2022-11-29T16:59:33.233Z,76.95
2022-11-29T17:02:00.823Z,76.44
2022-11-29T17:04:28.380Z,76.50
2022-11-29T17:06:57.149Z,76.59
2022-11-29T17:09:26.681Z,76.35
2022-11-29T17:11:56.463Z,76.71
2022-11-29T17:14:24.142Z,76.61
2022-11-29T17:16:52.180Z,76.78
2022-11-29T17:19:23.608Z,76.26
2022-11-29T17:21:51.947Z,76.59
2022-11-29T17:24:21.723Z,76.36
2022-11-29T17:26:49.195Z,76.61
2022-11-29T17:29:18.893Z,76.75
2022-11-29T17:31:50.405Z,76.52
2022-11-29T17:34:18.117Z,76.78
2022-11-29T17:36:46.092Z,76.59
2022-11-29T17:39:15.488Z,76.60
2022-11-29T17:41:43.019Z,76.80
2022-11-29T17:44:10.466Z,76.75
2022-11-29T17:46:39.292Z,76.87
2022-11-29T17:49:08.610Z,76.64
2022-11-29T17:51:53.989Z,76.48
2022-11-29T17:54:22.587Z,76.71
2022-11-29T17:56:50.224Z,76.56
2022-11-29T17:59:17.671Z,76.98
2022-11-29T18:01:47.900Z,76.59
2022-11-29T18:04:15.958Z,76.72
2022-11-29T18:06:43.494Z,76.91
2022-11-29T18:09:12.891Z,76.63
2022-11-29T18:11:47.461Z,76.78
2022-11-29T18:14:18.027Z,76.68
2022-11-29T18:16:46.874Z,76.63
2022-11-29T18:19:16.214Z,76.67
2022-11-29T18:21:44.448Z,77.10
2022-11-29T18:24:12.277Z,76.74
2022-11-29T18:26:40.340Z,77.09
2022-11-29T18:29:08.485Z,76.84
2022-11-29T18:31:38.035Z,76.91
2022-11-29T18:34:10.225Z,76.81
2022-11-29T18:36:39.934Z,76.54
2022-11-29T18:39:09.723Z,76.83
2022-11-29T18:41:38.488Z,76.79
2022-11-29T18:44:08.049Z,76.97
2022-11-29T18:46:37.227Z,77.08
2022-11-29T18:49:06.023Z,76.58
2022-11-29T18:51:36.008Z,76.95
2022-11-29T18:54:04.497Z,77.14
2022-11-29T18:56:34.393Z,77.06
2022-11-29T18:59:04.046Z,76.69
2022-11-29T19:01:33.853Z,76.90
2022-11-29T19:04:02.410Z,77.28
2022-11-29T19:06:38.991Z,77.18
2022-11-29T19:09:13.267Z,77.10
2022-11-29T19:11:40.746Z,77.25
2022-11-29T19:14:11.340Z,76.94
2022-11-29T19:16:41.395Z,77.23
2022-11-29T19:19:09.075Z,77.28
2022-11-29T19:21:36.915Z,77.12
2022-11-29T19:24:07.603Z,77.20
2022-11-29T19:26:36.535Z,77.22
2022-11-29T19:29:04.065Z,77.06
2022-11-29T19:31:31.547Z,77.25
2022-11-29T19:33:59.070Z,77.19
2022-11-29T19:36:28.576Z,77.45
2022-11-29T19:38:56.319Z,77.26
2022-11-29T19:41:27.211Z,77.54
2022-11-29T19:43:56.985Z,77.10
2022-11-29T19:46:26.379Z,77.33
2022-11-29T19:48:54.809Z,77.11
2022-11-29T19:51:23.063Z,77.00
2022-11-29T19:53:53.315Z,77.09
2022-11-29T19:56:21.219Z,77.19
2022-11-29T19:58:49.204Z,77.08
2022-11-29T20:01:20.410Z,77.51
2022-11-29T20:03:47.946Z,77.29
2022-11-29T20:06:16.207Z,77.32
2022-11-29T20:08:45.003Z,77.19
2022-11-29T20:11:15.269Z,77.22
2022-11-29T20:13:45.853Z,77.20
2022-11-29T20:16:15.708Z,77.53
2022-11-29T20:18:50.723Z,77.29
2022-11-29T20:21:20.461Z,77.19
2022-11-29T20:23:48.629Z,77.30
2022-11-29T20:26:19.230Z,77.50
2022-11-29T20:28:47.913Z,77.62
2022-11-29T20:31:17.353Z,77.58
2022-11-29T20:33:47.245Z,77.40
2022-11-29T20:36:28.836Z,77.36
2022-11-29T20:39:01.486Z,77.38
2022-11-29T20:41:38.435Z,77.67
2022-11-29T20:44:06.421Z,77.44
2022-11-29T20:46:34.237Z,77.38
2022-11-29T20:49:06.647Z,77.69
2022-11-29T20:51:41.140Z,77.59
2022-11-29T20:54:10.681Z,77.35
2022-11-29T20:56:38.146Z,77.36
2022-11-29T20:59:05.700Z,77.28
2022-11-29T21:01:34.341Z,77.54
2022-11-29T21:04:03.292Z,77.44
2022-11-29T21:06:30.843Z,77.76
2022-11-29T21:08:58.472Z,77.51
2022-11-29T21:11:26.401Z,77.49
2022-11-29T21:13:54.526Z,77.50
2022-11-29T21:16:28.618Z,77.56
2022-11-29T21:18:59.338Z,77.59
2022-11-29T21:21:33.766Z,77.44
2022-11-29T21:24:06.717Z,77.34
2022-11-29T21:26:41.799Z,77.51
2022-11-29T21:29:16.339Z,77.39
2022-11-29T21:31:44.396Z,77.61
2022-11-29T21:34:12.311Z,77.30
2022-11-29T21:36:41.774Z,77.46
2022-11-29T21:39:13.735Z,77.67
2022-11-29T21:41:41.786Z,77.60
2022-11-29T21:44:09.327Z,77.65
2022-11-29T21:46:37.001Z,77.52
2022-11-29T21:49:05.522Z,77.27
2022-11-29T21:51:33.056Z,77.38
2022-11-29T21:54:02.119Z,77.67
2022-11-29T21:56:29.705Z,77.34
2022-11-29T21:58:57.278Z,77.30
2022-11-29T22:01:27.105Z,77.07
2022-11-29T22:03:55.210Z,77.35
2022-11-29T22:06:24.189Z,77.41
2022-11-29T22:08:51.814Z,77.40
2022-11-29T22:11:30.799Z,77.16
2022-11-29T22:14:14.578Z,77.26
2022-11-29T22:16:46.860Z,77.38
2022-11-29T22:19:15.908Z,77.59
2022-11-29T22:21:45.381Z,77.07
2022-11-29T22:24:14.579Z,77.43
2022-11-29T22:26:44.370Z,77.38
2022-11-29T22:29:14.008Z,77.26
2022-11-29T22:31:42.052Z,77.65
2022-11-29T22:34:10.749Z,77.11
2022-11-29T22:36:39.365Z,77.17
2022-11-29T22:39:08.812Z,77.37
2022-11-29T22:41:38.207Z,77.21
2022-11-29T22:44:07.670Z,77.50
2022-11-29T22:46:40.036Z,77.11
2022-11-29T22:49:08.063Z,77.09
2022-11-29T22:51:37.341Z,77.37
2022-11-29T22:54:07.128Z,77.26
2022-11-29T22:56:36.615Z,77.28
2022-11-29T22:59:04.216Z,77.02
2022-11-29T23:01:34.907Z,77.43
2022-11-29T23:04:04.091Z,77.29
2022-11-29T23:06:33.797Z,77.13
2022-11-29T23:09:05.883Z,77.13
2022-11-29T23:11:33.504Z,77.22
2022-11-29T23:14:01.118Z,77.02
2022-11-29T23:16:30.660Z,77.05
2022-11-29T23:19:00.906Z,77.39
2022-11-29T23:21:30.172Z,77.45
2022-11-29T23:23:59.906Z,77.38
2022-11-29T23:26:29.844Z,77.02
2022-11-29T23:28:57.916Z,77.64
2022-11-29T23:31:25.827Z,76.89
2022-11-29T23:33:53.342Z,77.12
2022-11-29T23:36:22.252Z,77.21
2022-11-29T23:38:49.870Z,77.07
2022-11-29T23:41:17.460Z,77.20
2022-11-29T23:43:45.195Z,77.32
2022-11-29T23:46:15.589Z,76.88
2022-11-29T23:48:43.717Z,77.06
2022-11-29T23:51:11.997Z,76.91
2022-11-29T23:53:41.198Z,77.01
2022-11-29T23:56:11.268Z,77.12
2022-11-29T23:58:38.960Z,76.97
